createdAt,value
2018-10-02T00:00:00.720Z,3.73
2018-10-02T00:02:33.128Z,3.63
2018-10-02T00:05:05.754Z,3.30
2018-10-02T00:07:37.986Z,3.77
2018-10-02T00:10:10.313Z,3.20
2018-10-02T00:12:46.972Z,3.30
2018-10-02T00:15:19.204Z,3.70
2018-10-02T00:17:51.597Z,2.90
2018-10-02T00:20:23.866Z,3.83
2018-10-02T00:22:56.201Z,3.90
2018-10-02T00:25:28.725Z,3.67
2018-10-02T00:28:01.113Z,3.67
2018-10-02T00:30:33.497Z,3.80
2018-10-02T00:33:05.893Z,3.30
2018-10-02T00:35:38.249Z,3.50
2018-10-02T00:38:10.639Z,3.87
2018-10-02T00:40:43.209Z,3.50
2018-10-02T00:43:15.758Z,3.87
2018-10-02T00:45:48.110Z,3.40
2018-10-02T00:48:20.738Z,4.50
2018-10-02T00:50:53.134Z,3.70
2018-10-02T00:53:25.472Z,3.40
2018-10-02T00:55:58.037Z,4.10
2018-10-02T00:58:31.389Z,3.60
2018-10-02T01:01:04.162Z,3.87
2018-10-02T01:03:36.297Z,4.23
2018-10-02T01:06:08.167Z,4.90
2018-10-02T01:08:39.927Z,3.60
2018-10-02T01:11:12.213Z,4.60
2018-10-02T01:13:44.786Z,3.90
2018-10-02T01:16:17.151Z,4.20
2018-10-02T01:18:49.949Z,3.93
2018-10-02T01:21:22.468Z,3.70
2018-10-02T01:23:54.723Z,3.53
2018-10-02T01:26:27.036Z,4.20
2018-10-02T01:28:59.852Z,3.93
2018-10-02T01:31:31.532Z,4.40
2018-10-02T01:34:03.407Z,3.63
2018-10-02T01:36:36.245Z,3.50
2018-10-02T01:39:09.210Z,3.50
2018-10-02T01:41:41.989Z,3.57
2018-10-02T01:44:14.238Z,3.90
2018-10-02T01:46:46.402Z,4.03
2018-10-02T01:49:18.653Z,4.20
2018-10-02T01:51:50.896Z,3.90
2018-10-02T01:54:23.027Z,3.57
2018-10-02T01:56:55.737Z,3.37
2018-10-02T01:59:28.232Z,3.40
2018-10-02T02:02:00.540Z,3.73
2018-10-02T02:04:32.885Z,4.03
2018-10-02T02:07:05.305Z,4.30
2018-10-02T02:09:37.434Z,4.00
2018-10-02T02:12:10.291Z,4.03
2018-10-02T02:14:43.586Z,4.23
2018-10-02T02:17:15.862Z,4.00
2018-10-02T02:19:48.041Z,3.13
2018-10-02T02:22:20.242Z,4.23
2018-10-02T02:24:52.853Z,4.07
2018-10-02T02:27:25.172Z,3.70
2018-10-02T02:29:57.511Z,4.53
2018-10-02T02:32:29.677Z,4.40
2018-10-02T02:35:02.070Z,4.60
2018-10-02T02:37:34.439Z,4.70
2018-10-02T02:40:07.204Z,5.10
2018-10-02T02:42:39.565Z,6.60
2018-10-02T02:45:11.949Z,7.40
2018-10-02T02:47:48.330Z,7.97
2018-10-02T02:50:24.996Z,8.50
2018-10-02T02:53:01.569Z,11.90
2018-10-02T02:55:33.840Z,15.53
2018-10-02T02:58:06.030Z,11.50
2018-10-02T03:00:38.669Z,9.13
2018-10-02T03:03:10.839Z,8.17
2018-10-02T03:05:44.591Z,9.23
2018-10-02T03:08:16.699Z,9.20
2018-10-02T03:10:49.101Z,8.93
2018-10-02T03:13:21.447Z,8.30
2018-10-02T03:15:53.376Z,8.97
2018-10-02T03:18:25.685Z,10.90
2018-10-02T03:20:58.143Z,10.17
2018-10-02T03:23:29.867Z,12.50
2018-10-02T03:26:02.265Z,11.20
2018-10-02T03:28:34.578Z,13.20
2018-10-02T03:31:06.802Z,12.70
2018-10-02T03:33:39.428Z,12.00
2018-10-02T03:36:11.994Z,9.83
2018-10-02T03:38:44.169Z,10.40
2018-10-02T03:41:16.531Z,9.73
2018-10-02T03:43:48.319Z,8.83
2018-10-02T03:46:20.138Z,6.37
2018-10-02T03:48:52.440Z,7.07
2018-10-02T03:51:24.380Z,6.00
2018-10-02T03:53:56.754Z,6.30
2018-10-02T03:56:29.116Z,5.83
2018-10-02T03:59:02.282Z,5.57
2018-10-02T04:01:34.451Z,5.40
2018-10-02T04:04:06.870Z,4.93
2018-10-02T04:06:38.691Z,5.23
2018-10-02T04:09:12.677Z,5.67
2018-10-02T04:11:45.010Z,5.33
2018-10-02T04:14:17.306Z,5.10
2018-10-02T04:16:50.013Z,5.50
2018-10-02T04:19:22.060Z,5.70
2018-10-02T04:21:54.249Z,4.83
2018-10-02T04:24:26.446Z,5.53
2018-10-02T04:26:58.944Z,5.50
2018-10-02T04:29:36.379Z,5.17
2018-10-02T04:32:08.939Z,5.33
2018-10-02T04:34:41.202Z,5.57
2018-10-02T04:37:13.422Z,5.10
2018-10-02T04:39:45.737Z,5.30
2018-10-02T04:42:17.822Z,4.50
2018-10-02T04:44:50.047Z,5.87
2018-10-02T04:47:22.268Z,6.60
2018-10-02T04:49:54.812Z,5.80
2018-10-02T04:52:26.772Z,6.30
2018-10-02T04:54:58.940Z,6.40
2018-10-02T04:57:31.904Z,5.90
2018-10-02T05:00:04.088Z,6.40
2018-10-02T05:02:36.124Z,5.70
2018-10-02T05:05:08.486Z,5.50
2018-10-02T05:07:41.050Z,4.63
2018-10-02T05:10:13.562Z,5.37
2018-10-02T05:12:45.773Z,4.93
2018-10-02T05:15:17.989Z,5.20
2018-10-02T05:17:50.577Z,5.07
2018-10-02T05:20:22.877Z,6.00
2018-10-02T05:22:55.290Z,5.67
2018-10-02T05:25:27.413Z,6.60
2018-10-02T05:27:59.796Z,5.83
2018-10-02T05:30:32.144Z,5.23
2018-10-02T05:33:04.390Z,5.67
2018-10-02T05:35:37.152Z,6.00
2018-10-02T05:38:09.540Z,6.17
2018-10-02T05:40:42.006Z,7.00
2018-10-02T05:43:14.265Z,7.20
2018-10-02T05:45:46.536Z,8.37
2018-10-02T05:48:18.878Z,7.50
2018-10-02T05:50:51.399Z,6.77
2018-10-02T05:53:23.616Z,7.70
2018-10-02T05:55:56.142Z,6.20
2018-10-02T05:58:28.293Z,6.30
2018-10-02T06:01:00.464Z,6.90
2018-10-02T06:03:32.576Z,6.27
2018-10-02T06:06:05.766Z,6.23
2018-10-02T06:08:38.146Z,5.80
2018-10-02T06:11:10.294Z,6.17
2018-10-02T06:13:43.028Z,6.57
2018-10-02T06:16:15.340Z,5.70
2018-10-02T06:18:47.860Z,6.47
2018-10-02T06:21:20.182Z,6.03
2018-10-02T06:23:52.363Z,6.53
2018-10-02T06:26:24.738Z,5.93
2018-10-02T06:28:57.110Z,5.80
2018-10-02T06:31:29.060Z,5.90
2018-10-02T06:34:01.846Z,6.67
2018-10-02T06:36:34.236Z,6.23
2018-10-02T06:39:07.356Z,6.73
2018-10-02T06:41:39.556Z,6.57
2018-10-02T06:44:11.724Z,6.70
2018-10-02T06:46:43.711Z,7.10
2018-10-02T06:49:16.266Z,7.13
2018-10-02T06:51:48.634Z,6.87
2018-10-02T06:54:21.043Z,6.90
2018-10-02T06:56:53.316Z,6.80
2018-10-02T06:59:25.782Z,7.10
2018-10-02T07:01:57.958Z,7.37
2018-10-02T07:04:30.495Z,6.47
2018-10-02T07:07:02.874Z,6.97
2018-10-02T07:09:35.284Z,7.10
2018-10-02T07:12:07.765Z,6.83
2018-10-02T07:14:40.174Z,6.97
2018-10-02T07:17:12.271Z,7.47
2018-10-02T07:19:44.632Z,8.00
2018-10-02T07:22:16.827Z,6.97
2018-10-02T07:24:49.450Z,7.20
2018-10-02T07:27:21.914Z,6.73
2018-10-02T07:29:54.522Z,6.30
2018-10-02T07:32:27.096Z,7.20
2018-10-02T07:34:59.681Z,7.47
2018-10-02T07:37:31.932Z,6.17
2018-10-02T07:40:04.215Z,7.37
2018-10-02T07:42:36.718Z,5.87
2018-10-02T07:45:09.055Z,6.67
2018-10-02T07:47:41.348Z,6.87
2018-10-02T07:50:13.920Z,6.07
2018-10-02T07:52:46.047Z,6.77
2018-10-02T07:55:18.235Z,6.43
2018-10-02T07:57:50.903Z,6.40
2018-10-02T08:00:23.262Z,6.83
2018-10-02T08:02:55.583Z,6.73
2018-10-02T08:05:27.759Z,7.13
2018-10-02T08:08:00.126Z,6.23
2018-10-02T08:10:32.440Z,6.27
2018-10-02T08:13:07.578Z,7.07
2018-10-02T08:15:40.342Z,6.10
2018-10-02T08:18:12.679Z,5.50
2018-10-02T08:20:45.289Z,6.00
2018-10-02T08:23:17.501Z,6.07
2018-10-02T08:25:50.949Z,6.27
2018-10-02T08:28:23.259Z,6.23
2018-10-02T08:30:55.742Z,4.73
2018-10-02T08:33:28.195Z,7.17
2018-10-02T08:36:00.752Z,6.40
2018-10-02T08:38:32.955Z,6.10
2018-10-02T08:41:05.202Z,6.77
2018-10-02T08:43:37.509Z,6.77
2018-10-02T08:46:09.709Z,8.90
2018-10-02T08:48:42.211Z,9.20
2018-10-02T08:51:14.635Z,9.30
2018-10-02T08:53:47.046Z,8.27
2018-10-02T08:56:19.544Z,7.80
2018-10-02T08:58:51.662Z,7.57
2018-10-02T09:01:23.882Z,8.03
2018-10-02T09:03:55.755Z,7.03
2018-10-02T09:06:27.864Z,7.00
2018-10-02T09:09:00.102Z,6.30
2018-10-02T09:11:32.265Z,6.10
2018-10-02T09:14:04.672Z,6.50
2018-10-02T09:16:36.998Z,6.77
2018-10-02T09:19:09.669Z,4.77
2018-10-02T09:21:42.157Z,5.73
2018-10-02T09:24:14.857Z,5.90
2018-10-02T09:26:47.228Z,6.43
2018-10-02T09:29:19.370Z,5.20
2018-10-02T09:31:56.483Z,5.47
2018-10-02T09:34:33.598Z,5.73
2018-10-02T09:37:10.367Z,5.53
2018-10-02T09:39:47.040Z,5.50
2018-10-02T09:42:23.747Z,6.00
2018-10-02T09:44:56.188Z,5.43
2018-10-02T09:47:28.417Z,4.80
2018-10-02T09:50:00.746Z,5.10
2018-10-02T09:52:32.943Z,5.63
2018-10-02T09:55:05.368Z,4.67
2018-10-02T09:57:37.670Z,5.00
2018-10-02T10:00:14.095Z,5.63
2018-10-02T10:02:46.637Z,5.90
2018-10-02T10:05:19.175Z,6.20
2018-10-02T10:07:51.487Z,5.60
2018-10-02T10:10:24.036Z,5.40
2018-10-02T10:12:56.284Z,6.10
2018-10-02T10:15:28.478Z,5.17
2018-10-02T10:18:00.673Z,5.37
2018-10-02T10:20:32.800Z,5.20
2018-10-02T10:23:05.575Z,5.50
2018-10-02T10:25:37.858Z,5.30
2018-10-02T10:28:10.250Z,5.70
2018-10-02T10:30:42.485Z,6.70
2018-10-02T10:33:14.812Z,5.40
2018-10-02T10:35:46.946Z,5.73
2018-10-02T10:38:19.497Z,5.73
2018-10-02T10:40:51.903Z,5.77
2018-10-02T10:43:24.275Z,5.70
2018-10-02T10:45:56.453Z,5.93
2018-10-02T10:48:28.995Z,5.73
2018-10-02T10:51:01.198Z,5.50
2018-10-02T10:53:33.506Z,5.90
2018-10-02T10:56:06.187Z,5.50
2018-10-02T10:58:38.511Z,6.10
2018-10-02T11:01:10.655Z,6.17
2018-10-02T11:03:42.854Z,5.03
2018-10-02T11:06:15.417Z,5.90
2018-10-02T11:08:47.853Z,6.10
2018-10-02T11:11:19.937Z,6.23
2018-10-02T11:13:52.390Z,5.63
2018-10-02T11:16:24.673Z,6.47
2018-10-02T11:18:57.204Z,6.10
2018-10-02T11:21:29.306Z,5.70
2018-10-02T11:24:02.094Z,5.80
2018-10-02T11:26:34.431Z,6.30
2018-10-02T11:29:06.826Z,6.40
2018-10-02T11:31:39.960Z,6.57
2018-10-02T11:34:12.490Z,7.20
2018-10-02T11:36:45.070Z,7.00
2018-10-02T11:39:17.486Z,6.20
2018-10-02T11:41:50.000Z,7.13
2018-10-02T11:44:22.591Z,7.70
2018-10-02T11:46:55.151Z,7.20
2018-10-02T11:49:27.568Z,6.53
2018-10-02T11:51:59.892Z,6.17
2018-10-02T11:54:32.269Z,7.50
2018-10-02T11:57:04.511Z,6.70
2018-10-02T11:59:36.760Z,7.30
2018-10-02T12:02:09.412Z,6.73
2018-10-02T12:04:41.656Z,6.70
2018-10-02T12:07:13.898Z,6.50
2018-10-02T12:09:46.122Z,8.00
2018-10-02T12:12:18.222Z,7.27
2018-10-02T12:14:50.819Z,6.73
2018-10-02T12:17:22.983Z,7.37
2018-10-02T12:19:55.821Z,6.93
2018-10-02T12:22:27.952Z,6.97
2018-10-02T12:25:00.341Z,6.07
2018-10-02T12:27:32.666Z,6.67
2018-10-02T12:30:04.902Z,6.57
2018-10-02T12:32:37.015Z,5.17
2018-10-02T12:35:09.477Z,4.57
2018-10-02T12:37:41.736Z,5.30
2018-10-02T12:40:14.155Z,5.40
2018-10-02T12:42:46.452Z,4.70
2018-10-02T12:45:18.583Z,4.70
2018-10-02T12:47:52.000Z,4.57
2018-10-02T12:50:24.571Z,4.57
2018-10-02T12:52:57.528Z,4.03
2018-10-02T12:55:30.118Z,4.40
2018-10-02T12:58:02.258Z,3.90
2018-10-02T13:00:34.479Z,3.80
2018-10-02T13:03:07.012Z,3.57
2018-10-02T13:05:39.601Z,4.60
2018-10-02T13:08:11.983Z,3.70
2018-10-02T13:10:44.349Z,4.10
2018-10-02T13:13:16.877Z,3.60
2018-10-02T13:15:49.189Z,3.40
2018-10-02T13:18:21.541Z,4.50
2018-10-02T13:20:53.765Z,4.50
2018-10-02T13:23:25.844Z,4.33
2018-10-02T13:25:59.530Z,4.77
2018-10-02T13:28:31.754Z,4.70
2018-10-02T13:31:03.933Z,4.13
2018-10-02T13:33:36.114Z,3.83
2018-10-02T13:36:08.959Z,3.80
2018-10-02T13:38:41.219Z,4.90
2018-10-02T13:41:13.399Z,5.27
2018-10-02T13:43:45.767Z,4.90
2018-10-02T13:46:18.060Z,4.60
2018-10-02T13:48:50.287Z,4.30
2018-10-02T13:51:22.489Z,4.93
2018-10-02T13:53:55.259Z,4.23
2018-10-02T13:56:27.266Z,4.07
2018-10-02T13:59:00.122Z,5.00
2018-10-02T14:01:32.626Z,3.23
2018-10-02T14:04:05.198Z,3.80
2018-10-02T14:06:37.732Z,4.77
2018-10-02T14:09:10.552Z,3.93
2018-10-02T14:11:42.998Z,4.13
2018-10-02T14:14:15.278Z,3.77
2018-10-02T14:16:47.857Z,3.03
2018-10-02T14:19:20.365Z,2.97
2018-10-02T14:21:52.821Z,2.40
2018-10-02T14:24:25.019Z,2.77
2018-10-02T14:26:57.390Z,2.93
2018-10-02T14:29:29.870Z,2.50
2018-10-02T14:32:02.189Z,3.07
2018-10-02T14:34:34.932Z,3.00
2018-10-02T14:37:07.427Z,2.57
2018-10-02T14:39:39.881Z,2.70
2018-10-02T14:42:11.962Z,2.40
2018-10-02T14:44:44.517Z,3.03
2018-10-02T14:47:16.771Z,2.67
2018-10-02T14:49:49.284Z,2.37
2018-10-02T14:52:21.627Z,1.90
2018-10-02T14:54:53.654Z,2.30
2018-10-02T14:57:26.210Z,1.70
2018-10-02T14:59:58.744Z,1.90
2018-10-02T15:02:30.754Z,2.57
2018-10-02T15:05:03.310Z,1.63
2018-10-02T15:07:35.782Z,2.10
2018-10-02T15:10:08.265Z,2.03
2018-10-02T15:12:40.329Z,2.00
2018-10-02T15:15:12.865Z,2.13
2018-10-02T15:17:45.252Z,2.90
2018-10-02T15:20:17.691Z,3.03
2018-10-02T15:22:50.236Z,2.03
2018-10-02T15:25:22.613Z,2.33
2018-10-02T15:27:55.146Z,2.93
2018-10-02T15:30:27.287Z,3.43
2018-10-02T15:32:59.701Z,3.40
2018-10-02T15:35:32.675Z,2.73
2018-10-02T15:38:05.265Z,3.00
2018-10-02T15:40:37.437Z,3.93
2018-10-02T15:43:10.267Z,3.90
2018-10-02T15:45:42.666Z,2.80
2018-10-02T15:48:14.977Z,3.30
2018-10-02T15:50:47.355Z,3.00
2018-10-02T15:53:19.696Z,2.73
2018-10-02T15:55:52.072Z,2.93
2018-10-02T15:58:24.894Z,3.10
2018-10-02T16:00:57.230Z,3.37
2018-10-02T16:03:29.688Z,2.80
2018-10-02T16:06:01.913Z,3.80
2018-10-02T16:08:34.137Z,4.70
2018-10-02T16:11:06.138Z,3.80
2018-10-02T16:13:38.473Z,4.30
2018-10-02T16:16:10.973Z,3.50
2018-10-02T16:18:43.151Z,3.00
2018-10-02T16:21:15.468Z,3.03
2018-10-02T16:23:48.020Z,2.83
2018-10-02T16:26:20.863Z,3.00
2018-10-02T16:28:53.807Z,3.67
2018-10-02T16:31:25.985Z,3.87
2018-10-02T16:33:58.138Z,4.47
2018-10-02T16:36:30.268Z,3.80
2018-10-02T16:39:02.492Z,3.40
2018-10-02T16:41:34.618Z,3.53
2018-10-02T16:44:06.694Z,3.60
2018-10-02T16:46:39.216Z,4.27
2018-10-02T16:49:11.554Z,4.37
2018-10-02T16:51:43.955Z,5.50
2018-10-02T16:54:16.259Z,4.83
2018-10-02T16:56:48.479Z,5.63
2018-10-02T16:59:21.465Z,6.23
2018-10-02T17:01:53.830Z,6.30
2018-10-02T17:04:26.162Z,7.00
2018-10-02T17:06:58.632Z,6.50
2018-10-02T17:09:30.923Z,7.10
2018-10-02T17:12:03.436Z,6.57
2018-10-02T17:14:35.553Z,6.80
2018-10-02T17:17:07.558Z,7.30
2018-10-02T17:19:39.930Z,7.80
2018-10-02T17:22:12.411Z,7.50
2018-10-02T17:24:44.665Z,7.97
2018-10-02T17:27:17.212Z,6.50
2018-10-02T17:29:50.010Z,5.93
2018-10-02T17:32:22.192Z,4.57
2018-10-02T17:34:54.571Z,6.13
2018-10-02T17:37:27.109Z,5.80
2018-10-02T17:39:59.295Z,5.50
2018-10-02T17:42:31.445Z,5.53
2018-10-02T17:45:03.422Z,5.97
2018-10-02T17:47:35.949Z,4.70
2018-10-02T17:50:08.180Z,5.73
2018-10-02T17:52:40.908Z,6.37
2018-10-02T17:55:13.328Z,4.70
2018-10-02T17:57:45.738Z,5.23
2018-10-02T18:00:18.195Z,4.70
2018-10-02T18:02:50.511Z,5.10
2018-10-02T18:05:22.785Z,5.77
2018-10-02T18:07:55.009Z,4.73
2018-10-02T18:10:27.366Z,4.70
2018-10-02T18:13:00.138Z,4.20
2018-10-02T18:15:32.555Z,4.00
2018-10-02T18:18:04.955Z,4.27
2018-10-02T18:20:37.246Z,3.37
2018-10-02T18:23:09.624Z,3.17
2018-10-02T18:25:42.036Z,3.37
2018-10-02T18:28:14.180Z,3.07
2018-10-02T18:30:46.579Z,3.77
2018-10-02T18:33:19.135Z,3.00
2018-10-02T18:35:51.745Z,3.27
2018-10-02T18:38:24.275Z,3.40
2018-10-02T18:40:56.704Z,2.80
2018-10-02T18:43:29.256Z,3.40
2018-10-02T18:46:01.884Z,2.70
2018-10-02T18:48:34.270Z,2.73
2018-10-02T18:51:06.682Z,2.30
2018-10-02T18:53:38.953Z,2.47
2018-10-02T18:56:11.748Z,2.30
2018-10-02T18:58:44.078Z,2.80
2018-10-02T19:01:16.660Z,2.27
2018-10-02T19:03:49.074Z,2.57
2018-10-02T19:06:21.936Z,2.07
2018-10-02T19:08:59.462Z,2.10
2018-10-02T19:11:36.413Z,1.70
2018-10-02T19:14:08.500Z,2.10
2018-10-02T19:16:41.325Z,1.50
2018-10-02T19:19:18.046Z,1.80
2018-10-02T19:21:50.370Z,1.60
2018-10-02T19:24:22.546Z,1.50
2018-10-02T19:26:55.120Z,1.77
2018-10-02T19:29:27.529Z,1.20
2018-10-02T19:32:05.844Z,1.40
2018-10-02T19:34:38.100Z,1.30
2018-10-02T19:37:15.058Z,1.80
2018-10-02T19:39:47.409Z,1.50
2018-10-02T19:42:20.381Z,1.20
2018-10-02T19:44:53.076Z,1.57
2018-10-02T19:47:25.581Z,1.40
2018-10-02T19:49:58.091Z,1.00
2018-10-02T19:52:30.597Z,1.10
2018-10-02T19:55:02.969Z,1.80
2018-10-02T19:57:35.844Z,1.60
2018-10-02T20:00:08.742Z,1.50
2018-10-02T20:02:41.184Z,1.27
2018-10-02T20:05:13.366Z,1.00
2018-10-02T20:07:45.515Z,1.23
2018-10-02T20:10:17.914Z,1.43
2018-10-02T20:12:50.369Z,1.10
2018-10-02T20:15:22.923Z,1.30
2018-10-02T20:17:55.295Z,1.17
2018-10-02T20:20:27.474Z,1.10
2018-10-02T20:23:00.069Z,1.20
2018-10-02T20:25:32.386Z,1.40
2018-10-02T20:28:04.830Z,1.27
2018-10-02T20:30:37.166Z,1.60
2018-10-02T20:33:09.428Z,1.50
2018-10-02T20:35:41.825Z,1.80
2018-10-02T20:38:13.857Z,1.90
2018-10-02T20:40:47.759Z,1.70
2018-10-02T20:43:20.433Z,1.70
2018-10-02T20:45:52.996Z,1.57
2018-10-02T20:48:25.971Z,1.73
2018-10-02T20:50:58.292Z,1.40
2018-10-02T20:53:30.695Z,1.67
2018-10-02T20:56:03.026Z,1.83
2018-10-02T20:58:35.437Z,1.40
2018-10-02T21:01:08.018Z,1.53
2018-10-02T21:03:40.371Z,1.60
2018-10-02T21:06:12.727Z,1.70
2018-10-02T21:08:45.063Z,2.00
2018-10-02T21:11:17.909Z,1.50
2018-10-02T21:13:50.056Z,1.80
2018-10-02T21:16:22.183Z,1.80
2018-10-02T21:18:54.738Z,1.90
2018-10-02T21:21:27.406Z,1.60
2018-10-02T21:23:59.806Z,1.70
2018-10-02T21:26:31.766Z,1.33
2018-10-02T21:29:04.033Z,1.60
2018-10-02T21:31:36.152Z,1.73
2018-10-02T21:34:08.729Z,1.73
2018-10-02T21:36:41.239Z,1.90
2018-10-02T21:39:13.455Z,1.70
2018-10-02T21:41:45.623Z,1.60
2018-10-02T21:44:18.203Z,1.47
2018-10-02T21:46:50.625Z,1.60
2018-10-02T21:49:23.040Z,1.50
2018-10-02T21:51:55.335Z,1.60
2018-10-02T21:54:27.332Z,1.57
2018-10-02T21:56:59.596Z,1.67
2018-10-02T21:59:32.034Z,1.90
2018-10-02T22:02:05.092Z,1.53
2018-10-02T22:04:37.600Z,1.70
2018-10-02T22:07:10.199Z,1.53
2018-10-02T22:09:42.524Z,1.30
2018-10-02T22:12:14.878Z,1.80
2018-10-02T22:14:47.738Z,2.10
2018-10-02T22:17:19.817Z,1.80
2018-10-02T22:19:52.007Z,1.60
2018-10-02T22:22:24.305Z,1.23
2018-10-02T22:24:56.437Z,1.20
2018-10-02T22:27:28.776Z,1.20
2018-10-02T22:30:01.205Z,1.43
2018-10-02T22:32:33.442Z,1.30
2018-10-02T22:35:06.065Z,1.30
2018-10-02T22:37:38.598Z,1.30
2018-10-02T22:40:11.006Z,1.40
2018-10-02T22:42:43.353Z,1.60
2018-10-02T22:45:15.522Z,1.33
2018-10-02T22:47:48.064Z,1.33
2018-10-02T22:50:20.271Z,1.30
2018-10-02T22:52:52.803Z,1.80
2018-10-02T22:55:25.051Z,1.67
2018-10-02T22:57:57.114Z,2.50
2018-10-02T23:00:29.721Z,1.40
2018-10-02T23:03:01.904Z,1.50
2018-10-02T23:05:34.311Z,1.23
2018-10-02T23:08:06.890Z,1.60
2018-10-02T23:10:39.247Z,1.63
2018-10-02T23:13:11.384Z,1.63
2018-10-02T23:15:43.578Z,1.63
2018-10-02T23:18:15.962Z,1.37
2018-10-02T23:20:49.794Z,1.43
2018-10-02T23:23:21.928Z,1.50
2018-10-02T23:25:53.883Z,1.63
2018-10-02T23:28:26.555Z,1.70
2018-10-02T23:30:59.238Z,1.27
2018-10-02T23:33:32.087Z,1.37
2018-10-02T23:36:05.000Z,1.40
2018-10-02T23:38:37.554Z,1.87
2018-10-02T23:41:11.509Z,1.67
2018-10-02T23:43:44.029Z,1.57
2018-10-02T23:46:16.249Z,1.87
2018-10-02T23:48:48.357Z,2.20
2018-10-02T23:51:21.442Z,1.40
2018-10-02T23:53:53.946Z,1.60
2018-10-02T23:56:25.738Z,1.73
2018-10-02T23:58:58.362Z,1.93
